Time;durP1;ratioP1;P1;durP2;ratioP2;P2;SDS_P1;SDS_P2;PMS_P1;PMS_P2;Temp;Humidity;BMP_temperature;BMP_pressure;BME280_temperature;BME280_humidity;BME280_pressure;Samples;Min_cycle;Max_cycle;Signal;HPM_P1;HPM_P2
2023/06/21 00:01:45;;;;;;;54.47;13.17;;;;;;;24.39;63.40;98975.97;7312770;19;129177;-44
2023/06/21 00:04:10;;;;;;;44.13;12.10;;;;;;;24.32;63.41;98978.47;7312064;19;129472;-41
2023/06/21 00:06:37;;;;;;;42.07;12.50;;;;;;;24.35;63.90;98972.84;7312326;19;129692;-41
2023/06/21 00:09:03;;;;;;;65.82;14.60;;;;;;;24.33;63.82;98974.81;7311056;19;129275;-41
2023/06/21 00:11:29;;;;;;;36.27;12.10;;;;;;;24.31;63.61;98974.19;7313055;19;128932;-44
2023/06/21 00:13:55;;;;;;;38.35;12.45;;;;;;;24.34;63.34;98981.75;7310609;19;129261;-40
2023/06/21 00:16:21;;;;;;;45.13;12.07;;;;;;;24.35;63.41;98978.09;7311066;19;129343;-40
2023/06/21 00:18:46;;;;;;;39.67;12.80;;;;;;;24.32;64.11;98981.09;7311536;19;129249;-39
2023/06/21 00:21:13;;;;;;;32.00;12.02;;;;;;;24.31;64.25;98986.50;7311453;19;129042;-37
2023/06/21 00:23:39;;;;;;;35.28;12.32;;;;;;;24.44;63.68;98976.25;7311566;19;129065;-40
2023/06/21 00:26:05;;;;;;;46.33;13.07;;;;;;;24.45;63.61;98977.88;7311792;19;129120;-43
2023/06/21 00:28:30;;;;;;;36.43;12.53;;;;;;;24.38;63.82;98971.69;7311580;19;128800;-41
2023/06/21 00:30:55;;;;;;;37.60;11.87;;;;;;;24.40;63.13;98980.22;7309418;19;129464;-44
2023/06/21 00:33:21;;;;;;;37.67;12.27;;;;;;;24.41;63.93;98977.41;7310990;19;129490;-38
2023/06/21 00:35:46;;;;;;;42.23;12.70;;;;;;;24.35;63.46;98983.38;7310948;19;129195;-43
2023/06/21 00:38:12;;;;;;;32.77;11.77;;;;;;;24.40;63.84;98986.28;7311908;19;128985;-43
2023/06/21 00:40:38;;;;;;;41.35;12.40;;;;;;;24.41;63.36;98974.78;7308459;19;129274;-43
2023/06/21 00:43:04;;;;;;;32.05;12.07;;;;;;;24.45;63.63;98977.88;7312252;19;129053;-40
2023/06/21 00:45:33;;;;;;;55.67;13.27;;;;;;;24.46;63.89;98980.34;7310960;19;129168;-40
2023/06/21 00:47:58;;;;;;;63.22;13.77;;;;;;;24.54;63.79;98978.66;7311313;19;129058;-39
2023/06/21 00:50:25;;;;;;;34.43;11.47;;;;;;;24.55;63.90;98978.47;7309766;19;128931;-44
2023/06/21 00:52:50;;;;;;;28.80;11.60;;;;;;;24.72;63.06;98992.38;7311369;19;129328;-43
2023/06/21 00:55:19;;;;;;;34.87;11.63;;;;;;;24.82;63.09;99008.75;7310845;19;129154;-40
2023/06/21 00:57:44;;;;;;;43.80;13.27;;;;;;;24.81;63.99;99036.03;7310304;19;129142;-41
2023/06/21 01:00:17;;;;;;;31.43;12.33;;;;;;;24.88;63.20;99036.97;7309598;19;129007;-40
2023/06/21 01:02:43;;;;;;;24.65;10.63;;;;;;;24.84;63.23;99020.72;7310935;19;130270;-44
2023/06/21 01:05:09;;;;;;;39.17;12.40;;;;;;;25.00;62.34;99019.78;7309562;19;130538;-41
2023/06/21 01:07:49;;;;;;;49.07;12.33;;;;;;;25.00;62.99;99014.53;7311560;19;129647;-43
2023/06/21 01:10:35;;;;;;;37.13;12.30;;;;;;;24.91;62.85;98998.00;7309592;19;128944;-42
2023/06/21 01:13:09;;;;;;;42.25;12.05;;;;;;;25.02;62.77;99065.16;7310605;19;129617;-42
2023/06/21 01:15:41;;;;;;;47.00;12.70;;;;;;;25.01;62.93;99089.81;7310106;19;129295;-37
2023/06/21 01:18:07;;;;;;;41.25;12.07;;;;;;;24.91;63.68;99083.94;7310696;19;129239;-38
2023/06/21 01:20:36;;;;;;;35.72;11.55;;;;;;;25.01;63.27;99111.69;7307063;19;129246;-36
2023/06/21 01:23:16;;;;;;;49.70;13.38;;;;;;;25.01;63.86;99118.75;7310323;19;129169;-36
2023/06/21 01:26:00;;;;;;;24.10;10.93;;;;;;;25.05;63.69;99130.56;7309453;19;130746;-38
2023/06/21 01:28:41;;;;;;;34.78;11.75;;;;;;;25.07;63.48;99139.09;7309765;19;128951;-40
2023/06/21 01:31:09;;;;;;;32.28;10.98;;;;;;;25.04;63.23;99139.47;7310608;19;129374;-43
2023/06/21 01:33:35;;;;;;;33.10;10.90;;;;;;;25.05;63.71;99131.41;7311414;19;129490;-38
2023/06/21 01:36:03;;;;;;;38.95;12.05;;;;;;;25.04;64.09;99131.56;7316137;19;130710;-38
2023/06/21 01:38:29;;;;;;;47.22;12.50;;;;;;;25.06;63.19;99124.31;7316827;19;129505;-40
2023/06/21 01:40:54;;;;;;;53.73;12.03;;;;;;;25.03;63.63;99143.06;7314769;19;128858;-38
2023/06/21 01:43:21;;;;;;;29.27;10.33;;;;;;;25.05;63.63;99135.81;7315221;19;129379;-37
2023/06/21 01:45:47;;;;;;;40.15;10.25;;;;;;;25.05;63.43;99139.28;7316689;19;129214;-41
2023/06/21 01:48:14;;;;;;;52.92;11.20;;;;;;;25.06;63.41;99140.09;7315956;19;129190;-42
2023/06/21 01:50:40;;;;;;;50.25;11.18;;;;;;;25.04;63.24;99127.09;7314123;19;129320;-40
2023/06/21 01:53:06;;;;;;;34.78;10.38;;;;;;;25.04;63.79;99126.31;7316108;19;130019;-38
2023/06/21 01:55:32;;;;;;;55.75;10.82;;;;;;;25.06;63.70;99124.31;7316033;19;129154;-39
2023/06/21 01:57:58;;;;;;;55.67;11.00;;;;;;;25.05;64.08;99118.25;7315848;19;129182;-40
2023/06/21 02:00:26;;;;;;;47.93;9.83;;;;;;;25.07;63.43;99134.66;7315050;19;129110;-37
2023/06/21 02:02:52;;;;;;;37.13;9.43;;;;;;;25.06;63.37;99135.66;7315768;19;131094;-37
2023/06/21 02:05:20;;;;;;;51.23;9.70;;;;;;;25.05;63.21;99133.19;7315527;19;130344;-37
2023/06/21 02:07:46;;;;;;;49.78;9.63;;;;;;;25.04;64.01;99136.81;7314084;19;128807;-39
2023/06/21 02:10:13;;;;;;;;;;;;;;;25.14;63.91;99129.53;7315775;19;130687;-37
2023/06/21 02:12:41;;;;;;;32.55;9.05;;;;;;;25.06;63.88;99126.94;7315471;19;129470;-38
2023/06/21 02:15:07;;;;;;;32.95;8.68;;;;;;;25.03;63.80;99120.22;7313777;19;129742;-39
2023/06/21 02:17:33;;;;;;;71.22;11.20;;;;;;;25.03;63.77;99116.75;7315551;19;129244;-38
2023/06/21 02:19:58;;;;;;;48.70;10.23;;;;;;;25.01;63.78;99116.94;7314280;19;128834;-35
2023/06/21 02:22:23;;;;;;;21.93;8.13;;;;;;;24.90;64.73;99092.84;7316298;19;129962;-40
2023/06/21 02:24:49;;;;;;;29.13;8.70;;;;;;;25.04;64.29;99115.78;7314852;19;129554;-35
2023/06/21 02:27:14;;;;;;;41.77;8.50;;;;;;;25.03;64.15;99108.88;7316371;19;129629;-39
2023/06/21 02:29:40;;;;;;;35.15;9.05;;;;;;;25.03;64.13;99116.75;7314456;19;129048;-40
2023/06/21 02:32:05;;;;;;;47.80;9.70;;;;;;;24.93;64.89;99076.72;7315380;19;130791;-39
2023/06/21 02:34:31;;;;;;;53.43;9.83;;;;;;;25.05;64.01;99102.47;7312370;19;129196;-38
2023/06/21 02:36:56;;;;;;;47.43;9.03;;;;;;;25.06;64.25;99101.47;7315628;19;129103;-36
2023/06/21 02:39:22;;;;;;;28.93;8.43;;;;;;;25.03;64.25;99103.59;7313712;19;128949;-35
2023/06/21 02:41:49;;;;;;;20.30;7.50;;;;;;;24.91;64.84;99090.03;7315347;19;129035;-43
2023/06/21 02:44:14;;;;;;;69.95;10.93;;;;;;;25.04;64.62;99110.53;7312200;19;129365;-41
2023/06/21 02:46:40;;;;;;;42.50;8.77;;;;;;;25.04;64.95;99107.91;7314530;19;129364;-38
2023/06/21 02:49:06;;;;;;;32.38;7.75;;;;;;;25.03;64.62;99107.06;7314161;19;129453;-45
2023/06/21 02:51:31;;;;;;;18.42;7.78;;;;;;;25.01;64.74;99103.78;7313943;19;131031;-42
2023/06/21 02:53:56;;;;;;;58.83;9.10;;;;;;;25.05;64.08;99117.41;7313964;19;130578;-43
2023/06/21 02:56:22;;;;;;;61.67;9.83;;;;;;;25.05;64.61;99125.31;7315908;19;130150;-43
2023/06/21 02:58:47;;;;;;;37.87;8.57;;;;;;;25.04;64.03;99131.56;7312960;19;130640;-39
2023/06/21 03:01:13;;;;;;;48.27;8.77;;;;;;;25.05;64.16;99127.94;7312068;19;129397;-41
2023/06/21 03:03:44;;;;;;;60.53;9.60;;;;;;;25.03;64.96;99133.38;7312235;19;130339;-43
2023/06/21 03:06:11;;;;;;;25.73;7.95;;;;;;;25.00;64.15;99131.09;7315218;19;129018;-40
2023/06/21 03:08:38;;;;;;;36.50;7.82;;;;;;;25.03;64.23;99140.44;7312432;19;129461;-41
2023/06/21 03:11:04;;;;;;;;;;;;;;;25.11;64.71;99145.66;7311755;19;129819;-38
2023/06/21 03:13:29;;;;;;;50.47;9.18;;;;;;;25.06;64.27;99151.44;7313659;19;129499;-45
2023/06/21 03:15:55;;;;;;;39.47;7.93;;;;;;;24.99;64.70;99144.41;7312864;19;129175;-38
2023/06/21 03:18:20;;;;;;;27.20;7.27;;;;;;;25.01;64.24;99147.66;7314165;19;128803;-42
2023/06/21 03:20:49;;;;;;;32.85;7.90;;;;;;;24.99;64.40;99139.16;7309980;19;129558;-43
2023/06/21 03:23:15;;;;;;;45.30;8.13;;;;;;;25.01;64.38;99143.25;7314265;19;129697;-41
2023/06/21 03:25:42;;;;;;;43.07;8.33;;;;;;;24.94;64.45;99123.06;7313967;19;129117;-41
2023/06/21 03:28:07;;;;;;;;;;;;;;;25.13;64.42;99146.31;7313628;19;129825;-40
2023/06/21 03:30:32;;;;;;;32.57;7.37;;;;;;;25.06;64.27;99134.81;7312297;19;129532;-43
2023/06/21 03:32:58;;;;;;;49.43;8.13;;;;;;;25.03;65.04;99151.78;7314103;19;129675;-41
2023/06/21 03:35:24;;;;;;;25.73;6.07;;;;;;;25.01;64.72;99150.31;7312381;19;129430;-43
2023/06/21 03:37:50;;;;;;;146.15;13.93;;;;;;;25.04;64.02;99155.25;7311548;19;129173;-43
2023/06/21 03:40:16;;;;;;;54.30;8.77;;;;;;;25.03;64.05;99145.69;7310971;19;129527;-41
2023/06/21 03:42:42;;;;;;;45.50;7.57;;;;;;;25.03;64.17;99145.69;7313718;19;129413;-41
2023/06/21 03:45:08;;;;;;;;;;;;;;;25.11;64.61;99164.06;7314294;19;128998;-43
2023/06/21 03:47:39;;;;;;;38.50;7.60;;;;;;;25.05;64.65;99167.38;7311557;19;129352;-42
2023/06/21 03:50:05;;;;;;;30.17;6.60;;;;;;;25.03;64.33;99172.00;7309445;19;130354;-43
2023/06/21 03:52:30;;;;;;;44.53;8.10;;;;;;;25.03;64.71;99172.00;7312529;19;129655;-39
2023/06/21 03:54:56;;;;;;;77.97;9.77;;;;;;;25.02;64.67;99178.25;7310038;19;129503;-41
2023/06/21 03:57:21;;;;;;;29.47;6.57;;;;;;;24.96;64.62;99168.41;7309372;19;130092;-43
2023/06/21 03:59:46;;;;;;;40.17;7.63;;;;;;;25.03;64.35;99174.63;7307871;19;129172;-43
2023/06/21 04:02:12;;;;;;;63.13;8.10;;;;;;;24.90;64.57;99163.84;7311511;19;129580;-42
2023/06/21 04:04:38;;;;;;;115.10;12.47;;;;;;;25.00;64.54;99172.34;7309852;19;129939;-43
2023/06/21 04:07:04;;;;;;;;;;;;;;;25.11;63.98;99185.09;7310785;19;129476;-41
2023/06/21 04:09:29;;;;;;;43.05;6.75;;;;;;;25.05;64.45;99185.81;7309744;19;129118;-45
2023/06/21 04:11:54;;;;;;;35.97;6.73;;;;;;;25.05;64.37;99201.59;7311301;19;129302;-41
2023/06/21 04:14:20;;;;;;;33.40;6.27;;;;;;;25.07;64.19;99196.97;7308760;19;129848;-39
2023/06/21 04:16:45;;;;;;;38.23;6.60;;;;;;;25.03;63.82;99198.31;7311172;19;128962;-43
2023/06/21 04:19:10;;;;;;;51.13;7.27;;;;;;;25.04;64.23;99197.34;7309619;19;129385;-40
2023/06/21 04:21:36;;;;;;;29.00;6.57;;;;;;;24.98;63.61;99203.25;7312611;19;129079;-45
2023/06/21 04:24:01;;;;;;;31.07;6.60;;;;;;;25.03;63.76;99214.09;7312311;19;128854;-43
2023/06/21 04:26:28;;;;;;;26.60;6.20;;;;;;;25.02;63.60;99212.47;7312052;19;129218;-36
2023/06/21 04:28:54;;;;;;;59.28;7.88;;;;;;;25.01;64.07;99221.31;7307414;19;130691;-38
2023/06/21 04:31:19;;;;;;;40.93;7.17;;;;;;;24.93;63.80;99202.94;7311030;19;129285;-43
2023/06/21 04:33:45;;;;;;;46.97;7.13;;;;;;;25.02;63.66;99221.19;7307657;19;129109;-41
2023/06/21 04:36:10;;;;;;;33.47;6.13;;;;;;;25.02;62.89;99222.97;7311244;19;128865;-38
2023/06/21 04:38:37;;;;;;;37.07;6.27;;;;;;;25.04;63.05;99215.75;7310230;19;129318;-38
2023/06/21 04:41:02;;;;;;;28.88;5.75;;;;;;;24.95;62.96;99207.06;7309853;19;129607;-41
2023/06/21 04:43:27;;;;;;;29.87;5.87;;;;;;;25.03;62.96;99225.44;7311213;19;129094;-41
2023/06/21 04:45:53;;;;;;;39.70;6.37;;;;;;;24.95;63.23;99214.13;7310914;19;129166;-38
2023/06/21 04:48:18;;;;;;;53.93;7.00;;;;;;;25.04;63.21;99229.69;7307418;19;129640;-37
2023/06/21 04:50:45;;;;;;;52.20;6.60;;;;;;;25.02;62.96;99233.50;7306566;19;129306;-45
2023/06/21 04:53:12;;;;;;;34.15;5.72;;;;;;;25.02;63.16;99234.31;7303376;19;129285;-39
2023/06/21 04:55:42;;;;;;;54.90;7.18;;;;;;;25.03;63.03;99238.59;7306447;19;129133;-34
2023/06/21 04:58:08;;;;;;;71.97;8.57;;;;;;;25.03;62.44;99245.66;7307027;19;130078;-38
2023/06/21 05:00:35;;;;;;;38.72;6.13;;;;;;;25.03;62.62;99243.00;7306051;19;131057;-42
2023/06/21 05:03:00;;;;;;;47.50;6.40;;;;;;;25.03;62.91;99248.28;7304817;19;129474;-43
2023/06/21 05:05:25;;;;;;;41.43;6.10;;;;;;;25.04;62.19;99249.94;7307118;19;129350;-39
2023/06/21 05:07:51;;;;;;;111.80;10.13;;;;;;;25.05;62.57;99248.94;7300698;19;129136;-40
2023/06/21 05:10:16;;;;;;;38.70;6.27;;;;;;;25.05;62.24;99241.88;7310128;19;129617;-38
2023/06/21 05:12:42;;;;;;;63.50;7.50;;;;;;;25.00;62.10;99241.56;7312674;19;129094;-41
2023/06/21 05:15:07;;;;;;;40.80;5.57;;;;;;;25.01;62.93;99248.44;7311721;19;129757;-37
2023/06/21 05:17:34;;;;;;;58.50;6.63;;;;;;;25.03;62.81;99237.75;7312182;19;130645;-40
2023/06/21 05:19:59;;;;;;;49.75;6.03;;;;;;;25.01;63.19;99245.81;7311961;19;130086;-36
2023/06/21 05:22:25;;;;;;;44.27;5.67;;;;;;;25.00;62.41;99246.00;7314132;19;130058;-38
2023/06/21 05:24:50;;;;;;;50.47;6.37;;;;;;;24.98;63.06;99242.72;7307368;19;129455;-36
2023/06/21 05:27:15;;;;;;;49.93;6.10;;;;;;;25.00;62.50;99246.00;7310120;19;130242;-37
2023/06/21 05:29:41;;;;;;;31.48;4.97;;;;;;;25.00;62.68;99233.66;7311166;19;129611;-40
2023/06/21 05:32:07;;;;;;;50.83;5.90;;;;;;;25.02;62.21;99236.97;7311246;19;129530;-39
2023/06/21 05:34:32;;;;;;;54.23;6.43;;;;;;;25.04;62.66;99244.69;7310267;19;129095;-40
2023/06/21 05:36:58;;;;;;;60.92;6.60;;;;;;;25.03;62.56;99235.97;7311433;19;129551;-38
2023/06/21 05:39:23;;;;;;;55.50;6.13;;;;;;;25.04;62.60;99252.56;7310350;19;129504;-43
2023/06/21 05:41:49;;;;;;;47.30;5.83;;;;;;;25.04;62.85;99252.56;7311475;19;129315;-40
2023/06/21 05:44:15;;;;;;;55.87;6.13;;;;;;;25.05;62.90;99264.72;7311265;19;129742;-39
2023/06/21 05:46:40;;;;;;;39.47;5.57;;;;;;;25.04;62.55;99258.63;7311508;19;129803;-40
2023/06/21 05:49:06;;;;;;;39.03;5.17;;;;;;;25.04;62.45;99258.63;7309735;19;130350;-39
2023/06/21 05:51:31;;;;;;;42.63;5.80;;;;;;;25.04;62.41;99255.19;7312977;19;129772;-41
2023/06/21 05:53:57;;;;;;;71.27;6.70;;;;;;;25.03;62.32;99261.44;7310945;19;129076;-39
2023/06/21 05:56:26;;;;;;;52.00;5.67;;;;;;;25.03;62.84;99262.25;7312495;19;130065;-40
2023/06/21 05:58:52;;;;;;;40.20;5.57;;;;;;;25.03;62.65;99267.53;7310643;19;130490;-38
2023/06/21 06:01:18;;;;;;;41.83;5.13;;;;;;;25.02;62.61;99265.06;7311985;19;129305;-35
2023/06/21 06:03:43;;;;;;;57.23;6.03;;;;;;;25.04;62.55;99270.97;7312071;19;129399;-42
2023/06/21 06:06:09;;;;;;;43.53;5.53;;;;;;;25.01;62.76;99263.41;7311530;19;129441;-40
2023/06/21 06:08:34;;;;;;;41.83;5.57;;;;;;;25.03;62.85;99271.94;7310742;19;129551;-39
2023/06/21 06:11:00;;;;;;;50.90;6.27;;;;;;;25.01;62.74;99268.66;7308470;19;129434;-37
2023/06/21 06:13:26;;;;;;;61.20;6.40;;;;;;;25.04;62.79;99276.25;7310304;19;129550;-38
2023/06/21 06:15:51;;;;;;;48.15;5.88;;;;;;;25.04;62.95;99273.63;7308803;19;129600;-36
2023/06/21 06:18:17;;;;;;;45.80;5.50;;;;;;;25.03;62.27;99287.72;7310431;19;129971;-38
2023/06/21 06:20:43;;;;;;;46.17;5.80;;;;;;;25.03;62.85;99277.22;7308190;19;129497;-39
2023/06/21 06:23:12;;;;;;;61.87;6.57;;;;;;;25.03;63.20;99285.94;7310706;19;129323;-43
2023/06/21 06:25:38;;;;;;;51.78;6.32;;;;;;;25.04;62.32;99289.41;7311417;19;129542;-42
2023/06/21 06:28:04;;;;;;;43.63;5.68;;;;;;;25.02;62.30;99291.38;7311999;19;129520;-38
2023/06/21 06:30:29;;;;;;;47.57;5.63;;;;;;;24.98;62.22;99290.88;7308590;19;129040;-36
2023/06/21 06:32:55;;;;;;;44.03;5.63;;;;;;;25.02;62.70;99301.88;7312139;19;129044;-41
2023/06/21 06:35:20;;;;;;;54.50;6.50;;;;;;;25.02;62.96;99307.16;7309839;19;130209;-42
2023/06/21 06:37:45;;;;;;;39.40;5.50;;;;;;;24.92;62.44;99291.56;7311796;19;130491;-42
2023/06/21 06:40:11;;;;;;;59.03;6.70;;;;;;;25.01;62.73;99303.69;7307394;19;129470;-41
2023/06/21 06:42:37;;;;;;;43.30;5.57;;;;;;;24.94;63.07;99301.91;7311826;19;129068;-37
2023/06/21 06:45:02;;;;;;;30.03;5.10;;;;;;;25.01;62.93;99323.91;7311677;19;129192;-37
2023/06/21 06:47:29;;;;;;;42.07;5.87;;;;;;;25.02;63.07;99329.03;7311166;19;130877;-35
2023/06/21 06:49:55;;;;;;;58.50;6.72;;;;;;;25.02;62.94;99325.56;7309781;19;130067;-35
2023/06/21 06:52:20;;;;;;;49.28;6.10;;;;;;;24.99;62.68;99339.06;7311966;19;129836;-36
2023/06/21 06:54:46;;;;;;;48.47;6.60;;;;;;;25.01;62.53;99342.31;7310157;19;129494;-42
2023/06/21 06:57:11;;;;;;;42.07;5.93;;;;;;;25.03;62.09;99342.97;7310644;19;129776;-38
2023/06/21 06:59:36;;;;;;;37.57;5.63;;;;;;;24.98;62.21;99342.66;7309105;19;128884;-40
2023/06/21 07:02:02;;;;;;;44.90;6.23;;;;;;;24.99;63.07;99341.69;7311599;19;129225;-40
2023/06/21 07:04:28;;;;;;;40.30;6.20;;;;;;;25.02;62.37;99341.34;7310803;19;129586;-40
2023/06/21 07:06:54;;;;;;;36.35;5.75;;;;;;;24.99;62.92;99360.09;7310006;19;130251;-42
2023/06/21 07:09:19;;;;;;;81.53;8.60;;;;;;;25.01;62.28;99352.84;7309223;19;129821;-36
2023/06/21 07:11:45;;;;;;;36.93;5.70;;;;;;;24.96;62.34;99344.63;7311507;19;128985;-39
2023/06/21 07:14:10;;;;;;;58.20;6.83;;;;;;;25.02;62.53;99354.50;7310574;19;129726;-38
2023/06/21 07:16:40;;;;;;;48.37;6.90;;;;;;;25.02;62.82;99354.50;7309676;19;131246;-37
2023/06/21 07:19:06;;;;;;;75.90;7.93;;;;;;;25.00;62.41;99356.47;7308650;19;129660;-42
2023/06/21 07:21:31;;;;;;;33.77;6.03;;;;;;;25.01;62.68;99352.84;7310405;19;129176;-36
2023/06/21 07:23:57;;;;;;;48.17;6.37;;;;;;;25.01;62.61;99350.19;7308495;19;130197;-42
2023/06/21 07:26:22;;;;;;;37.97;6.37;;;;;;;24.98;62.69;99345.28;7309693;19;129092;-42
2023/06/21 07:28:47;;;;;;;47.23;7.10;;;;;;;24.92;62.18;99338.06;7308409;19;129306;-40
2023/06/21 07:31:13;;;;;;;45.67;6.90;;;;;;;25.01;62.24;99355.47;7307398;19;129596;-42
2023/06/21 07:33:38;;;;;;;37.43;6.03;;;;;;;25.01;62.19;99369.44;7309555;19;130646;-35
2023/06/21 07:36:05;;;;;;;49.80;6.97;;;;;;;25.00;62.20;99367.00;7306160;19;129554;-39
2023/06/21 07:38:30;;;;;;;60.92;7.43;;;;;;;25.02;62.53;99372.91;7308879;19;129241;-41
2023/06/21 07:40:55;;;;;;;39.23;5.97;;;;;;;25.04;62.49;99378.84;7306624;19;129192;-38
2023/06/21 07:43:21;;;;;;;24.97;5.23;;;;;;;25.00;62.70;99367.00;7308952;19;128975;-40
2023/06/21 07:45:47;;;;;;;70.77;7.97;;;;;;;24.94;62.03;99359.78;7308037;19;129320;-41
2023/06/21 07:48:12;;;;;;;51.07;6.43;;;;;;;25.04;62.52;99386.72;7308629;19;129229;-39
2023/06/21 07:50:38;;;;;;;36.47;6.20;;;;;;;25.04;62.89;99384.09;7306827;19;129786;-40
2023/06/21 07:53:03;;;;;;;49.07;7.37;;;;;;;25.01;61.94;99379.13;7307640;19;130065;-43
2023/06/21 07:55:29;;;;;;;49.93;7.10;;;;;;;24.94;62.67;99376.34;7307425;19;129271;-40
2023/06/21 07:57:54;;;;;;;63.03;7.80;;;;;;;25.03;62.36;99398.22;7307687;19;128982;-41
2023/06/21 08:00:20;;;;;;;47.70;6.53;;;;;;;25.01;62.12;99408.06;7305769;19;129430;-35
2023/06/21 08:02:45;;;;;;;42.00;6.17;;;;;;;25.03;62.23;99403.47;7307960;19;129565;-41
2023/06/21 08:05:11;;;;;;;67.70;7.85;;;;;;;25.05;62.39;99398.88;7308453;19;129545;-35
2023/06/21 08:07:36;;;;;;;48.57;6.87;;;;;;;25.00;62.18;99393.28;7308152;19;129131;-38
2023/06/21 08:10:02;;;;;;;38.63;6.13;;;;;;;25.05;62.62;99406.75;7306085;19;128947;-38
2023/06/21 08:12:27;;;;;;;38.87;6.50;;;;;;;25.02;62.03;99407.09;7309059;19;129530;-41
2023/06/21 08:14:53;;;;;;;51.27;6.97;;;;;;;25.04;62.38;99405.13;7307536;19;129591;-37
2023/06/21 08:17:18;;;;;;;46.03;6.40;;;;;;;25.03;62.35;99403.47;7308878;19;129376;-37
2023/06/21 08:19:43;;;;;;;40.90;6.83;;;;;;;25.07;62.46;99415.31;7306377;19;129162;-43
2023/06/21 08:22:09;;;;;;;40.47;7.03;;;;;;;25.03;62.40;99411.38;7307173;19;129177;-40
2023/06/21 08:24:37;;;;;;;68.37;7.93;;;;;;;25.04;62.59;99415.66;7307964;19;130039;-39
2023/06/21 08:27:02;;;;;;;39.63;6.50;;;;;;;25.01;61.97;99416.78;7308952;19;129240;-38
2023/06/21 08:29:27;;;;;;;38.63;6.37;;;;;;;25.05;62.28;99412.03;7306371;19;129354;-41
2023/06/21 08:31:53;;;;;;;48.57;6.53;;;;;;;25.03;62.42;99414.00;7308182;19;129772;-35
2023/06/21 08:34:18;;;;;;;42.57;6.47;;;;;;;25.02;61.95;99420.25;7307804;19;129285;-40
2023/06/21 08:36:43;;;;;;;48.83;6.73;;;;;;;25.03;61.94;99424.53;7306870;19;129387;-35
2023/06/21 08:39:09;;;;;;;57.40;7.53;;;;;;;25.02;62.04;99415.00;7304754;19;129677;-38
2023/06/21 08:41:39;;;;;;;54.90;7.13;;;;;;;25.05;62.45;99417.28;7306644;19;129790;-42
2023/06/21 08:44:05;;;;;;;57.50;7.22;;;;;;;25.05;61.85;99418.13;7314254;19;130272;-41
2023/06/21 08:46:34;;;;;;;40.83;6.63;;;;;;;25.05;61.91;99423.38;7314163;19;128940;-39
2023/06/21 08:49:03;;;;;;;44.38;6.75;;;;;;;25.05;61.81;99422.56;7312230;19;131201;-38
2023/06/21 08:51:29;;;;;;;54.67;7.65;;;;;;;25.04;62.54;99426.19;7313355;19;129617;-36
2023/06/21 08:54:00;;;;;;;62.58;8.15;;;;;;;25.04;61.93;99426.19;7314043;19;129216;-43
2023/06/21 08:56:28;;;;;;;39.50;6.30;;;;;;;24.96;62.37;99418.28;7312076;19;129115;-38
2023/06/21 08:59:06;;;;;;;48.47;7.20;;;;;;;25.04;62.41;99421.72;7313806;19;129476;-41
2023/06/21 09:01:49;;;;;;;44.20;6.45;;;;;;;25.06;62.01;99414.50;7312585;19;129093;-44
2023/06/21 09:04:16;;;;;;;37.88;6.63;;;;;;;25.05;62.07;99417.28;7314611;19;129158;-37
2023/06/21 09:06:43;;;;;;;54.85;7.40;;;;;;;25.03;62.70;99435.88;7313199;19;129449;-40
2023/06/21 09:09:11;;;;;;;43.17;7.07;;;;;;;24.97;62.23;99417.31;7312678;19;129372;-37
2023/06/21 09:11:37;;;;;;;41.55;6.80;;;;;;;25.05;61.84;99433.06;7312684;19;129697;-40
2023/06/21 09:14:03;;;;;;;55.78;8.02;;;;;;;25.04;62.18;99431.44;7313125;19;129179;-41
2023/06/21 09:16:29;;;;;;;59.77;7.70;;;;;;;25.06;61.97;99418.91;7310591;19;129114;-37
2023/06/21 09:18:55;;;;;;;49.45;7.05;;;;;;;25.06;62.65;99429.44;7313522;19;129260;-37
2023/06/21 09:21:21;;;;;;;46.05;7.43;;;;;;;25.04;62.55;99431.44;7313340;19;129416;-35
2023/06/21 09:23:47;;;;;;;38.77;6.97;;;;;;;25.06;61.74;99434.69;7312767;19;129592;-41
2023/06/21 09:26:12;;;;;;;66.10;8.07;;;;;;;25.05;61.98;99433.06;7312566;19;129359;-42
2023/06/21 09:28:38;;;;;;;38.33;6.57;;;;;;;24.95;62.36;99400.84;7313454;19;129123;-41
2023/06/21 09:31:03;;;;;;;49.97;7.73;;;;;;;25.06;61.83;99426.81;7310337;19;129947;-38
2023/06/21 09:33:29;;;;;;;34.30;6.30;;;;;;;25.04;62.38;99421.72;7312910;19;129483;-35
2023/06/21 09:35:56;;;;;;;59.72;7.97;;;;;;;25.03;62.21;99427.16;7310289;19;129052;-40
2023/06/21 09:38:23;;;;;;;20.35;5.70;;;;;;;25.07;62.44;99424.00;7313258;19;129251;-37
2023/06/21 09:40:48;;;;;;;74.93;8.77;;;;;;;25.03;61.67;99411.38;7308728;19;129680;-39
2023/06/21 09:43:14;;;;;;;51.30;8.00;;;;;;;25.06;62.08;99426.81;7312668;19;131258;-39
2023/06/21 09:45:39;;;;;;;50.60;7.33;;;;;;;25.06;62.04;99432.06;7313279;19;129418;-39
2023/06/21 09:48:05;;;;;;;58.40;8.00;;;;;;;25.07;62.13;99426.66;7312621;19;129263;-39
2023/06/21 09:50:41;;;;;;;44.53;7.17;;;;;;;25.07;62.08;99428.47;7310707;19;129775;-36
2023/06/21 09:53:11;;;;;;;32.40;6.13;;;;;;;25.05;62.14;99428.63;7311615;19;129277;-37
2023/06/21 09:55:36;;;;;;;23.85;6.15;;;;;;;25.06;61.87;99424.19;7314453;19;129232;-36
2023/06/21 09:58:03;;;;;;;76.90;9.60;;;;;;;25.04;62.26;99423.56;7315468;19;129699;-41
2023/06/21 10:00:35;;;;;;;30.92;6.72;;;;;;;25.04;61.93;99415.66;7315794;19;129473;-37
2023/06/21 10:03:02;;;;;;;25.92;6.40;;;;;;;25.05;62.12;99414.66;7315179;19;130640;-43
2023/06/21 10:05:28;;;;;;;32.13;6.75;;;;;;;24.94;62.12;99399.22;7316243;19;129054;-37
2023/06/21 10:07:53;;;;;;;53.63;7.63;;;;;;;25.03;62.02;99419.25;7314788;19;129304;-37
2023/06/21 10:10:19;;;;;;;33.00;7.03;;;;;;;25.05;62.29;99422.56;7314267;19;129503;-43
2023/06/21 10:12:54;;;;;;;32.87;6.90;;;;;;;25.08;62.15;99422.22;7314916;19;129048;-36
2023/06/21 10:15:20;;;;;;;24.48;6.43;;;;;;;25.05;61.77;99420.75;7314910;19;129651;-38
2023/06/21 10:17:46;;;;;;;46.25;7.55;;;;;;;25.05;62.16;99425.19;7316217;19;128858;-34
2023/06/21 10:20:14;;;;;;;31.40;6.37;;;;;;;25.08;61.69;99433.56;7314979;19;129494;-36
2023/06/21 10:22:42;;;;;;;44.65;7.80;;;;;;;25.08;61.87;99438.81;7315099;19;129504;-40
2023/06/21 10:25:08;;;;;;;32.78;6.63;;;;;;;25.06;62.33;99434.69;7315099;19;128978;-42
2023/06/21 10:27:35;;;;;;;32.30;6.73;;;;;;;25.06;61.87;99429.44;7316011;19;128923;-39
2023/06/21 10:30:02;;;;;;;34.78;7.05;;;;;;;25.06;62.37;99435.53;7313532;19;129405;-39
2023/06/21 10:32:30;;;;;;;30.52;6.80;;;;;;;25.07;61.78;99436.38;7316240;19;131816;-35
2023/06/21 10:35:09;;;;;;;20.40;6.70;;;;;;;24.97;62.26;99412.03;7314523;19;129003;-35
2023/06/21 10:37:50;;;;;;;34.25;7.07;;;;;;;25.09;61.58;99444.91;7315485;19;129135;-41
2023/06/21 10:40:17;;;;;;;36.38;7.05;;;;;;;25.02;62.12;99434.25;7313366;19;129723;-35
2023/06/21 10:42:44;;;;;;;39.60;6.95;;;;;;;25.06;62.07;99445.22;7315834;19;129826;-38
2023/06/21 10:45:10;;;;;;;;;;;;;;;25.14;62.03;99447.88;7316031;19;129330;-35
2023/06/21 10:47:38;;;;;;;25.85;6.50;;;;;;;25.03;62.48;99456.09;7315880;19;129527;-36
2023/06/21 10:50:05;;;;;;;37.03;7.05;;;;;;;24.94;62.34;99426.31;7312055;19;129161;-38
2023/06/21 10:52:30;;;;;;;41.97;7.43;;;;;;;24.95;62.29;99420.09;7315059;19;129205;-44
2023/06/21 10:55:00;;;;;;;42.17;7.60;;;;;;;25.04;61.43;99447.22;7314242;19;130447;-34
2023/06/21 10:57:30;;;;;;;31.55;6.82;;;;;;;25.05;61.49;99447.06;7314691;19;130209;-39
2023/06/21 11:00:02;;;;;;;30.30;6.95;;;;;;;24.95;61.83;99432.41;7313184;19;129335;-36
2023/06/21 11:02:28;;;;;;;43.60;6.82;;;;;;;25.05;61.76;99447.06;7315262;19;129457;-41
2023/06/21 11:05:13;;;;;;;37.75;7.22;;;;;;;25.01;61.67;99437.00;7314695;19;128743;-40
2023/06/21 11:07:47;;;;;;;32.35;6.28;;;;;;;25.07;61.18;99439.00;7315248;19;129357;-41
2023/06/21 11:10:12;;;;;;;25.35;5.85;;;;;;;25.08;61.38;99448.53;7312538;19;129297;-38
2023/06/21 11:12:38;;;;;;;24.90;6.00;;;;;;;25.10;61.58;99457.91;7313378;19;129863;-43
2023/06/21 11:15:05;;;;;;;49.50;6.93;;;;;;;25.08;61.32;99461.66;7313554;19;129564;-36